Track Денисенко Максим

Time Latitude Longitude Accuracy (66% radius in meters) Altitude (meters) Speed (km/hour) Bearing (degrees) Battery (%) GPS flag
06:41:04 51.761841 107.092320 0 0 0 0 1 delete
06:41:03 51.761841 107.092319 0 0 0 0 1 delete
06:41:02 51.761841 107.092317 0 0 0 0 1 delete
06:41:01 51.761842 107.092315 0 0 0 0 1 delete
06:41:00 51.761842 107.092312 0 0 0 0 1 delete
06:40:59 51.761842 107.092309 0 0 0 0 1 delete
06:40:58 51.761841 107.092307 0 0 0 0 1 delete
06:40:57 51.761841 107.092307 0 0 0 0 1 delete
06:40:56 51.761841 107.092308 0 0 0 0 1 delete
06:40:55 51.761842 107.092309 0 0 0 0 1 delete
06:40:54 51.761843 107.092309 0 0 0 0 1 delete
06:40:53 51.761846 107.092308 0 0 0 0 1 delete
06:40:52 51.761850 107.092305 0 0 0 0 1 delete
06:40:51 51.761859 107.092293 0 0 0 0 1 delete
06:40:50 51.761874 107.092274 0 0 0 0 1 delete
06:40:49 51.761893 107.092250 0 0 0 0 1 delete
06:40:48 51.761913 107.092229 0 0 0 0 1 delete
06:40:47 51.761934 107.092211 0 0 0 0 1 delete
06:40:46 51.761953 107.092195 0 0 0 0 1 delete
06:40:45 51.761972 107.092183 0 0 0 0 1 delete
06:40:44 51.761993 107.092171 0 0 0 0 1 delete
06:40:43 51.762016 107.092162 0 0 0 0 1 delete
06:40:42 51.762037 107.092152 0 0 0 0 1 delete
06:40:41 51.762057 107.092145 0 0 0 0 1 delete
06:40:40 51.762077 107.092138 0 0 0 0 1 delete
06:40:39 51.762099 107.092130 0 0 0 0 1 delete
06:40:38 51.762121 107.092120 0 0 0 0 1 delete
06:40:37 51.762144 107.092110 0 0 0 0 1 delete
06:40:36 51.762165 107.092099 0 0 0 0 1 delete
06:40:35 51.762186 107.092088 0 0 0 0 1 delete
06:40:34 51.762210 107.092080 0 0 0 0 1 delete
06:40:33 51.762234 107.092071 0 0 0 0 1 delete
06:40:32 51.762257 107.092064 0 0 0 0 1 delete
06:40:31 51.762278 107.092057 0 0 0 0 1 delete
06:40:30 51.762298 107.092052 0 0 0 0 1 delete
06:40:29 51.762319 107.092048 0 0 0 0 1 delete
06:40:28 51.762341 107.092045 0 0 0 0 1 delete
06:40:27 51.762361 107.092044 0 0 0 0 1 delete
06:40:26 51.762379 107.092045 0 0 0 0 1 delete
06:40:25 51.762397 107.092047 0 0 0 0 1 delete
06:40:24 51.762416 107.092051 0 0 0 0 1 delete
06:40:23 51.762435 107.092055 0 0 0 0 1 delete
06:40:22 51.762456 107.092058 0 0 0 0 1 delete
06:40:21 51.762475 107.092060 0 0 0 0 1 delete
06:40:20 51.762495 107.092062 0 0 0 0 1 delete
06:40:19 51.762515 107.092063 0 0 0 0 1 delete
06:40:18 51.762537 107.092067 0 0 0 0 1 delete
06:40:17 51.762555 107.092073 0 0 0 0 1 delete
06:40:16 51.762572 107.092078 0 0 0 0 1 delete
06:40:15 51.762590 107.092081 0 0 0 0 1 delete